Time;durP1;ratioP1;P1;durP2;ratioP2;P2;SDS_P1;SDS_P2;PMS_P1;PMS_P2;Temp;Humidity;BMP_temperature;BMP_pressure;BME280_temperature;BME280_humidity;BME280_pressure;Samples;Min_cycle;Max_cycle;Signal;HPM_P1;HPM_P2
2023/01/10 00:00:24;;;;;;;27.30;14.23;;;5.30;99.90;;;5.08;69.29;94202.44;4978287;28;20521;-58
2023/01/10 00:02:51;;;;;;;37.20;16.23;;;5.20;99.90;;;5.05;69.72;94214.88;4984263;28;20497;-55
2023/01/10 00:05:18;;;;;;;33.90;14.80;;;5.20;99.90;;;5.05;69.61;94167.97;4979293;28;20505;-56
2023/01/10 00:07:46;;;;;;;28.47;15.60;;;5.20;99.90;;;5.00;69.65;94197.00;4981263;28;20490;-56
2023/01/10 00:10:13;;;;;;;28.80;14.67;;;5.20;99.90;;;4.98;69.55;94191.91;4986927;28;20486;-55
2023/01/10 00:15:26;;;;;;;35.13;17.10;;;5.10;99.90;;;4.95;69.78;94181.72;4989992;28;20610;-56
2023/01/10 00:17:54;;;;;;;25.70;15.03;;;5.10;99.90;;;4.94;70.00;94206.16;4980353;28;20549;-56
2023/01/10 00:20:21;;;;;;;30.43;16.43;;;5.10;99.90;;;4.93;69.85;94182.81;4985246;28;20463;-56
2023/01/10 00:22:49;;;;;;;30.90;15.37;;;5.10;99.90;;;4.91;69.99;94177.72;4981522;28;21073;-54
2023/01/10 00:25:18;;;;;;;25.70;14.40;;;5.10;99.90;;;4.90;70.13;94194.31;4981939;28;20992;-55
2023/01/10 00:27:48;;;;;;;26.27;14.43;;;5.00;99.90;;;4.90;70.49;94157.00;4980013;28;20700;-56
2023/01/10 00:30:16;;;;;;;26.10;14.43;;;5.00;99.90;;;4.91;70.24;94182.94;4984833;28;20461;-53
2023/01/10 00:32:43;;;;;;;25.57;14.97;;;5.00;99.90;;;4.92;70.18;94149.88;4982633;28;20506;-54
2023/01/10 00:35:11;;;;;;;23.73;14.00;;;5.00;99.90;;;4.90;70.39;94170.03;4981847;28;21038;-57
2023/01/10 00:37:38;;;;;;;28.60;14.07;;;5.10;99.90;;;4.90;70.81;94183.06;4978825;28;20634;-56
2023/01/10 00:40:08;;;;;;;26.40;14.00;;;5.10;99.90;;;4.88;70.12;94159.75;4985918;28;20473;-55
2023/01/10 00:45:23;;;;;;;26.93;13.47;;;5.00;99.90;;;4.85;70.49;94139.16;4979252;28;20532;-56
2023/01/10 00:47:51;;;;;;;23.50;12.73;;;5.00;99.90;;;4.84;70.53;94134.88;4981321;28;21029;-55
2023/01/10 00:50:18;;;;;;;22.00;12.60;;;5.00;99.90;;;4.84;70.77;94127.06;4980735;28;20454;-54
2023/01/10 00:52:46;;;;;;;19.40;13.43;;;5.00;99.90;;;4.84;70.90;94132.28;4980310;28;20588;-55
2023/01/10 00:55:13;;;;;;;24.13;14.30;;;5.00;99.90;;;4.87;71.38;94137.22;4982588;28;20974;-54
2023/01/10 00:57:40;;;;;;;19.53;12.57;;;5.00;99.90;;;4.90;70.09;94170.84;4979986;28;20483;-55
2023/01/10 01:00:10;;;;;;;22.30;13.53;;;5.00;99.90;;;4.91;70.40;94156.03;4976022;28;20455;-56
2023/01/10 01:02:39;;;;;;;26.23;13.40;;;5.00;99.90;;;4.93;70.29;94130.72;4989137;28;20469;-54
2023/01/10 01:05:08;;;;;;;21.60;13.23;;;5.10;99.90;;;4.94;70.24;94167.06;4983572;28;20463;-55
2023/01/10 01:07:35;;;;;;;23.90;12.33;;;5.10;99.90;;;4.94;70.60;94137.56;4981603;28;20478;-56
2023/01/10 01:12:48;;;;;;;20.53;12.70;;;5.10;99.90;;;4.95;69.68;94119.19;4983004;28;20548;-55
2023/01/10 01:15:15;;;;;;;23.80;13.67;;;5.10;99.90;;;4.97;70.55;94164.22;4980449;28;20481;-54
2023/01/10 01:17:44;;;;;;;22.53;12.70;;;5.10;99.90;;;4.98;70.31;94147.59;4979378;28;20471;-56
2023/01/10 01:20:12;;;;;;;17.40;11.37;;;5.10;99.90;;;4.97;70.47;94148.59;4979793;28;21006;-54
2023/01/10 01:22:39;;;;;;;19.17;11.60;;;5.10;99.90;;;4.96;70.23;94104.41;4977780;28;20553;-55
2023/01/10 01:25:07;;;;;;;19.77;11.70;;;5.10;99.90;;;4.98;69.96;94139.78;4980387;28;21054;-56
2023/01/10 01:27:36;;;;;;;21.17;12.60;;;5.10;99.90;;;4.98;70.40;94131.16;4977691;28;20470;-56
2023/01/10 01:30:05;;;;;;;26.43;13.10;;;5.10;99.90;;;5.00;70.32;94121.44;4979195;28;20458;-56
2023/01/10 01:32:32;;;;;;;21.67;12.20;;;5.20;99.90;;;5.01;70.19;94125.69;4979922;28;20523;-56
2023/01/10 01:35:01;;;;;;;21.30;12.67;;;5.20;99.90;;;5.00;70.03;94124.03;4978839;28;20463;-55
2023/01/10 01:37:28;;;;;;;24.00;12.73;;;5.20;99.90;;;5.00;70.13;94116.22;4980792;28;20486;-55
2023/01/10 01:39:55;;;;;;;26.00;13.57;;;5.20;99.90;;;5.02;70.38;94109.13;4979398;28;20550;-55
2023/01/10 01:42:26;;;;;;;23.10;12.33;;;5.20;99.90;;;5.03;70.14;94119.41;4976553;28;20479;-56
2023/01/10 01:45:41;;;;;;;21.90;12.40;;;5.20;99.90;;;5.03;70.31;94116.81;4980346;28;20553;-57
2023/01/10 01:48:21;;;;;;;18.30;12.30;;;5.20;99.90;;;5.02;70.44;94130.78;4888125;29;20500;-57
2023/01/10 01:50:54;;;;;;;17.10;10.77;;;5.20;99.90;;;5.02;70.12;94116.94;4968556;28;20492;-54
2023/01/10 01:53:24;;;;;;;20.10;11.67;;;5.20;99.90;;;5.00;70.76;94127.47;4978540;28;21162;-57
2023/01/10 01:55:52;;;;;;;17.17;11.30;;;5.20;99.90;;;4.97;70.72;94091.25;4988114;28;20489;-54
2023/01/10 01:58:24;;;;;;;17.40;11.90;;;5.10;99.90;;;4.95;69.50;94098.34;4975705;28;20642;-57
2023/01/10 02:00:51;;;;;;;16.63;10.90;;;5.10;99.90;;;4.94;70.64;94114.94;4978383;28;20473;-56
2023/01/10 02:03:18;;;;;;;17.10;11.10;;;5.10;99.90;;;4.94;71.46;94101.94;4977773;28;20490;-56
2023/01/10 02:05:46;;;;;;;21.00;12.30;;;5.10;99.90;;;4.96;70.49;94138.28;4982216;28;20471;-54
2023/01/10 02:08:14;;;;;;;19.77;12.90;;;5.10;99.90;;;4.95;70.38;94079.28;4979214;28;20490;-56
2023/01/10 02:10:47;;;;;;;20.23;11.10;;;5.10;99.90;;;4.95;70.29;94098.34;4981718;28;20458;-55
2023/01/10 02:13:16;;;;;;;17.13;11.10;;;5.10;99.90;;;4.94;70.51;94065.44;4982385;28;20490;-55
2023/01/10 02:15:43;;;;;;;19.73;12.10;;;5.10;99.90;;;4.94;70.65;94103.69;4978764;28;21046;-53
2023/01/10 02:18:10;;;;;;;15.27;10.07;;;5.10;99.90;;;4.93;71.26;94055.16;4981796;28;20475;-57
2023/01/10 02:20:43;;;;;;;17.93;10.60;;;5.10;99.90;;;4.93;70.48;94068.19;4981818;28;20964;-54
2023/01/10 02:23:43;;;;;;;18.53;11.70;;;5.10;99.90;;;4.96;70.62;94053.09;4982437;28;20835;-53
2023/01/10 02:26:38;;;;;;;20.70;12.10;;;5.10;99.90;;;5.00;71.16;94059.72;4974377;28;20968;-54
2023/01/10 02:29:49;;;;;;;22.23;11.87;;;5.10;99.90;;;5.04;71.33;94062.91;4975754;28;20519;-57
2023/01/10 02:32:25;;;;;;;15.67;10.43;;;5.10;99.90;;;5.06;70.45;94054.97;4977886;28;20499;-55
2023/01/10 02:35:03;;;;;;;18.17;11.10;;;5.20;99.90;;;5.08;71.02;94066.06;4971956;28;20539;-57
2023/01/10 02:37:39;;;;;;;20.43;11.50;;;5.20;99.90;;;5.09;70.37;94059.91;4978122;28;20478;-55
2023/01/10 02:40:11;;;;;;;17.33;10.97;;;5.20;99.90;;;5.10;70.80;94065.00;4980127;28;20468;-54
2023/01/10 02:42:42;;;;;;;18.47;12.10;;;5.20;99.90;;;5.12;70.53;94054.44;4979734;28;20482;-57
2023/01/10 02:45:14;;;;;;;17.60;10.47;;;5.20;99.90;;;5.13;70.50;94082.19;4978870;28;20524;-56
2023/01/10 02:47:43;;;;;;;21.57;11.83;;;5.30;99.90;;;5.14;70.51;94076.84;4979845;28;21478;-54
2023/01/10 02:50:31;;;;;;;19.30;11.50;;;5.30;99.90;;;5.16;70.50;94071.50;4974495;28;20465;-56
2023/01/10 02:53:00;;;;;;;18.30;10.77;;;5.30;99.90;;;5.15;70.58;94062.00;4975659;28;20503;-55
2023/01/10 02:55:34;;;;;;;18.27;11.17;;;5.30;99.90;;;5.16;70.24;94071.50;4982688;28;20466;-56
2023/01/10 02:58:05;;;;;;;17.30;10.73;;;5.30;99.90;;;5.19;70.43;94074.66;4977195;28;20478;-57
2023/01/10 03:00:39;;;;;;;16.10;11.70;;;5.30;99.90;;;5.24;70.45;94071.69;4976305;28;20468;-54
2023/01/10 03:03:34;;;;;;;19.37;11.70;;;5.30;99.90;;;5.27;70.61;94089.69;4977879;28;20585;-54
2023/01/10 03:06:11;;;;;;;17.73;11.07;;;5.40;99.90;;;5.27;70.18;94074.03;4972455;28;20841;-55
2023/01/10 03:08:41;;;;;;;18.73;11.97;;;5.40;99.90;;;5.29;70.47;94074.72;4981807;28;20997;-57
2023/01/10 03:11:09;;;;;;;19.93;10.60;;;5.40;99.90;;;5.30;69.96;94091.19;4978289;28;20540;-56
2023/01/10 03:13:41;;;;;;;21.37;11.13;;;5.40;99.90;;;5.31;69.93;94072.81;4982649;28;20613;-55
2023/01/10 03:16:18;;;;;;;18.27;11.87;;;5.40;99.90;;;5.33;70.03;94083.94;4981492;28;20954;-56
2023/01/10 03:18:48;;;;;;;19.70;12.00;;;5.40;99.90;;;5.36;70.15;94090.66;4976345;28;20991;-54
2023/01/10 03:21:15;;;;;;;17.70;11.47;;;5.50;99.90;;;5.41;70.23;94090.28;4977718;28;20995;-55
2023/01/10 03:23:43;;;;;;;21.23;12.50;;;5.50;99.90;;;5.44;69.93;94093.50;4977007;28;21041;-55
2023/01/10 03:26:10;;;;;;;18.30;11.70;;;5.50;99.90;;;5.46;70.05;94090.75;4976357;28;20465;-53
2023/01/10 03:28:42;;;;;;;18.47;11.20;;;5.60;99.90;;;5.46;69.87;94073.31;4977522;28;20636;-56
2023/01/10 03:31:11;;;;;;;22.73;12.50;;;5.60;99.90;;;5.48;69.60;94081.81;4979103;28;20841;-55
2023/01/10 03:33:38;;;;;;;16.70;11.23;;;5.60;99.90;;;5.49;69.74;94080.88;4981889;28;20945;-53
2023/01/10 03:36:15;;;;;;;16.87;11.40;;;5.60;99.90;;;5.52;69.89;94079.81;4982363;28;20462;-56
2023/01/10 03:38:48;;;;;;;16.23;10.80;;;5.60;99.90;;;5.53;69.49;94081.44;4982995;28;20854;-57
2023/01/10 03:41:19;;;;;;;16.33;10.73;;;5.60;99.90;;;5.59;69.82;94091.38;4980371;28;21023;-57
2023/01/10 03:46:39;;;;;;;21.37;10.83;;;5.70;99.90;;;5.69;69.62;94078.38;4981582;28;20462;-55
2023/01/10 03:49:06;;;;;;;17.90;11.70;;;5.80;99.90;;;5.74;69.52;94071.00;4976454;28;20478;-55
2023/01/10 03:51:37;;;;;;;19.47;12.20;;;5.80;99.90;;;5.81;69.75;94058.25;4980111;28;20458;-55
2023/01/10 03:54:04;;;;;;;19.33;11.30;;;5.90;99.90;;;5.82;69.12;94055.50;4978741;28;20572;-57
2023/01/10 03:56:32;;;;;;;16.70;10.20;;;5.90;99.90;;;5.81;69.06;94050.41;4982098;28;20892;-56
2023/01/10 03:58:59;;;;;;;12.90;9.77;;;5.90;99.90;;;5.79;68.71;94026.25;4977222;28;20862;-55
2023/01/10 04:01:26;;;;;;;15.17;10.23;;;5.90;99.90;;;5.75;68.72;94018.69;4980468;28;20504;-56
2023/01/10 04:03:54;;;;;;;14.60;10.20;;;5.90;99.90;;;5.73;68.96;93999.72;4980193;28;20478;-55
2023/01/10 04:06:21;;;;;;;19.70;12.13;;;5.90;99.90;;;5.71;69.13;93988.56;4973855;28;20960;-55
2023/01/10 04:08:50;;;;;;;21.83;13.13;;;5.80;99.90;;;5.71;68.73;93980.75;4981333;28;20475;-56
2023/01/10 04:11:17;;;;;;;18.80;12.70;;;5.80;99.90;;;5.70;68.50;93978.28;4979566;28;20513;-58
2023/01/10 04:13:44;;;;;;;19.30;11.50;;;5.80;99.90;;;5.68;69.02;93969.75;4978711;28;20505;-56
2023/01/10 04:16:11;;;;;;;15.80;10.83;;;5.80;99.90;;;5.65;68.80;93973.44;4976193;28;20464;-55
2023/01/10 04:18:39;;;;;;;16.30;11.30;;;5.80;99.90;;;5.63;69.01;93977.16;4975596;28;20576;-56
2023/01/10 04:21:06;;;;;;;18.00;10.43;;;5.80;99.90;;;5.60;68.85;94009.56;4976288;28;20525;-56
2023/01/10 04:23:33;;;;;;;15.77;10.57;;;5.70;99.90;;;5.59;69.63;94035.78;4978650;28;20478;-55
2023/01/10 04:26:02;;;;;;;15.20;10.57;;;5.70;99.90;;;5.58;69.94;94053.22;4975641;28;20485;-57
2023/01/10 04:28:30;;;;;;;19.07;10.67;;;5.70;99.90;;;5.57;69.65;94068.00;4979464;28;20488;-56
2023/01/10 04:30:57;;;;;;;15.97;11.00;;;5.70;99.90;;;5.60;69.10;94076.56;4979313;28;20466;-56
2023/01/10 04:33:25;;;;;;;16.27;11.40;;;5.70;99.90;;;5.61;68.58;94073.81;4978824;28;20503;-56
2023/01/10 04:35:52;;;;;;;17.53;10.53;;;5.70;99.90;;;5.61;69.22;94073.81;4979303;28;20536;-56
2023/01/10 04:38:19;;;;;;;19.50;12.50;;;5.70;99.90;;;5.65;69.26;94092.63;4979534;28;20475;-55
2023/01/10 04:40:53;;;;;;;16.97;10.80;;;5.70;99.90;;;5.65;68.90;94080.41;4975286;28;20788;-54
2023/01/10 04:43:21;;;;;;;35.20;19.50;;;5.70;99.90;;;5.66;68.71;94074.25;4976763;28;20518;-56
2023/01/10 04:45:49;;;;;;;21.00;13.13;;;5.80;99.90;;;5.71;69.21;94066.03;4977695;28;20572;-57
2023/01/10 04:48:16;;;;;;;17.77;11.10;;;5.80;99.90;;;5.75;69.23;94055.22;4982783;28;20478;-57
2023/01/10 04:50:43;;;;;;;18.63;11.57;;;5.80;99.90;;;5.83;69.16;94048.50;4985570;28;20460;-54
2023/01/10 04:53:10;;;;;;;19.73;11.73;;;5.90;99.90;;;5.90;68.90;94047.84;4976961;28;20565;-56
2023/01/10 04:55:38;;;;;;;50.70;26.63;;;6.00;99.90;;;5.97;68.62;94048.19;4981956;28;21003;-57
2023/01/10 04:58:05;;;;;;;20.43;13.30;;;6.00;99.90;;;6.02;68.93;94048.59;4977090;28;20472;-55
2023/01/10 05:00:34;;;;;;;20.57;12.93;;;6.10;99.90;;;6.09;68.58;94044.50;4982291;28;20458;-56
2023/01/10 05:03:01;;;;;;;25.00;14.00;;;6.10;99.90;;;6.15;68.72;94034.47;4982204;28;20562;-55
2023/01/10 05:05:28;;;;;;;36.20;15.20;;;6.20;99.90;;;6.19;67.80;94028.03;4980180;28;20458;-55
2023/01/10 05:07:56;;;;;;;23.53;12.80;;;6.30;99.90;;;6.20;67.72;94021.88;4976892;28;20557;-58
2023/01/10 05:10:23;;;;;;;19.50;12.67;;;6.30;99.90;;;6.21;68.09;94023.50;4983895;28;20467;-56
2023/01/10 05:12:51;;;;;;;30.70;13.17;;;6.30;99.90;;;6.20;67.70;94032.31;4980135;28;20550;-56
2023/01/10 05:15:19;;;;;;;19.80;13.00;;;6.30;99.90;;;6.19;68.08;94034.09;4978877;28;20463;-55
2023/01/10 05:17:49;;;;;;;21.57;12.77;;;6.30;99.90;;;6.20;68.29;94032.31;4976530;28;20475;-56
2023/01/10 05:20:17;;;;;;;19.13;10.80;;;6.30;99.90;;;6.23;67.91;94019.00;4979697;28;21302;-58
2023/01/10 05:22:45;;;;;;;22.60;12.27;;;6.30;99.90;;;6.24;68.26;94028.47;4979363;28;21020;-56
2023/01/10 05:25:12;;;;;;;21.37;12.20;;;6.30;99.90;;;6.28;67.74;94029.84;4980240;28;20463;-55
2023/01/10 05:27:42;;;;;;;21.10;11.40;;;6.40;99.90;;;6.33;67.88;94009.38;4974809;28;20562;-54
2023/01/10 05:30:12;;;;;;;20.10;11.20;;;6.40;99.90;;;6.36;67.73;94006.50;4981425;28;20454;-57
2023/01/10 05:32:40;;;;;;;20.30;12.20;;;6.40;99.90;;;6.41;68.14;94011.31;4978721;28;21017;-57
2023/01/10 05:35:09;;;;;;;16.33;11.00;;;6.50;99.90;;;6.43;67.38;94015.44;4977786;28;20927;-54
2023/01/10 05:37:37;;;;;;;22.70;12.23;;;6.50;99.90;;;6.47;67.63;94026.44;4982515;28;20917;-54
2023/01/10 05:40:05;;;;;;;21.07;12.57;;;6.50;99.90;;;6.52;67.40;94045.16;4978107;28;20455;-56
2023/01/10 05:42:32;;;;;;;18.10;11.80;;;6.60;99.90;;;6.57;67.03;94042.13;4978946;28;20483;-57
2023/01/10 05:45:00;;;;;;;22.17;14.43;;;6.60;99.90;;;6.59;67.19;94048.03;4978118;28;20855;-57
2023/01/10 05:47:27;;;;;;;22.20;13.30;;;6.70;99.90;;;6.63;66.77;94033.72;4983579;28;20487;-55
2023/01/10 05:49:54;;;;;;;24.23;14.70;;;6.70;99.90;;;6.68;66.91;94031.56;4973838;28;20459;-56
2023/01/10 05:52:23;;;;;;;19.83;14.17;;;6.70;99.90;;;6.72;66.69;94035.53;4985625;28;20556;-57
2023/01/10 05:54:50;;;;;;;27.30;14.60;;;6.70;99.90;;;6.71;66.64;94030.44;4976262;28;20999;-54
2023/01/10 05:57:19;;;;;;;28.47;15.67;;;6.80;99.90;;;6.66;66.70;94028.22;4978677;28;20470;-56
2023/01/10 05:59:46;;;;;;;24.57;12.60;;;6.80;99.90;;;6.62;66.31;94038.13;4981864;28;21042;-60
2023/01/10 06:02:13;;;;;;;21.53;13.13;;;6.70;99.90;;;6.60;66.57;94037.47;4974808;28;20451;-56
2023/01/10 06:04:41;;;;;;;17.80;12.37;;;6.70;99.90;;;6.58;66.75;94033.31;4977955;28;20486;-54
2023/01/10 06:07:08;;;;;;;21.73;12.40;;;6.70;99.90;;;6.56;66.72;94035.25;4978735;28;20584;-56
2023/01/10 06:09:37;;;;;;;20.20;11.73;;;6.70;99.90;;;6.56;66.51;94036.06;4981433;28;20888;-57
2023/01/10 06:12:05;;;;;;;21.53;13.07;;;6.70;99.90;;;6.57;66.55;94036.91;4978947;28;20525;-54
2023/01/10 06:14:32;;;;;;;23.80;14.00;;;6.70;99.90;;;6.59;66.87;94048.03;4979737;28;21026;-52
2023/01/10 06:16:59;;;;;;;21.33;13.87;;;6.70;99.90;;;6.62;67.00;94050.38;4980957;28;20824;-55
2023/01/10 06:19:26;;;;;;;26.00;14.60;;;6.70;99.90;;;6.67;67.19;94060.44;4977671;28;20494;-54
2023/01/10 06:21:54;;;;;;;28.73;14.80;;;6.70;99.90;;;6.70;67.40;94055.75;4977849;28;20462;-56
2023/01/10 06:24:21;;;;;;;32.10;18.10;;;6.70;99.90;;;6.75;66.83;94048.31;4979264;28;20504;-57
2023/01/10 06:26:50;;;;;;;29.00;17.50;;;6.80;99.90;;;6.77;67.14;94050.78;4977532;28;20451;-55
2023/01/10 06:29:17;;;;;;;34.03;20.40;;;6.80;99.90;;;6.79;66.87;94047.09;4977104;28;20474;-52
2023/01/10 06:31:44;;;;;;;34.10;18.77;;;6.90;99.90;;;6.83;67.69;94045.00;4978730;28;20977;-57
2023/01/10 06:34:11;;;;;;;34.87;18.77;;;6.90;99.90;;;6.85;67.14;94044.88;4977959;28;20552;-57
2023/01/10 06:36:39;;;;;;;33.70;19.17;;;6.90;99.90;;;6.85;66.97;94044.88;4978672;28;20465;-57
2023/01/10 06:39:06;;;;;;;32.97;19.83;;;6.90;99.90;;;6.83;66.99;94045.00;4977438;28;20474;-56
2023/01/10 06:41:33;;;;;;;33.57;19.27;;;6.90;99.90;;;6.81;66.80;94042.53;4977558;28;20465;-57
2023/01/10 06:44:02;;;;;;;39.33;20.90;;;6.90;99.90;;;6.81;67.36;94050.38;4976595;28;20512;-57
2023/01/10 06:46:29;;;;;;;34.30;19.60;;;6.90;99.90;;;6.83;67.54;94050.25;4976785;28;20459;-53
2023/01/10 06:48:57;;;;;;;34.50;20.23;;;6.90;99.90;;;6.86;67.87;94049.97;4981330;28;20494;-58
2023/01/10 06:51:24;;;;;;;38.43;21.90;;;6.90;99.90;;;6.88;67.71;94053.28;4981257;28;20847;-55
2023/01/10 06:53:51;;;;;;;39.33;20.77;;;6.90;99.90;;;6.89;68.04;94057.53;4978852;28;20506;-57
2023/01/10 06:56:19;;;;;;;37.57;17.97;;;6.90;99.90;;;6.92;67.93;94051.22;4975909;28;20566;-56
2023/01/10 06:58:48;;;;;;;29.90;17.03;;;7.00;99.90;;;6.96;71.64;94044.75;4978629;28;20476;-57
2023/01/10 07:01:19;;;;;;;37.90;18.03;;;7.00;99.90;;;7.04;69.88;94031.81;4976599;28;20459;-56
2023/01/10 07:03:47;;;;;;;39.37;17.63;;;7.10;99.90;;;7.13;69.84;94028.34;4975975;28;20482;-54
2023/01/10 07:06:14;;;;;;;37.40;18.97;;;7.10;99.90;;;7.23;68.86;94024.91;4975047;28;20459;-57
2023/01/10 07:08:43;;;;;;;39.67;18.33;;;7.20;99.90;;;7.25;69.53;94021.19;4975738;28;20478;-56
2023/01/10 07:11:11;;;;;;;35.63;20.80;;;7.20;99.90;;;7.32;70.09;94016.22;4975348;28;20459;-57
2023/01/10 07:13:39;;;;;;;33.27;21.30;;;7.30;99.90;;;7.38;69.61;94007.81;4978264;28;20481;-56
2023/01/10 07:16:08;;;;;;;42.73;23.77;;;7.40;99.90;;;7.40;68.69;94013.72;4975678;28;20455;-56
2023/01/10 07:18:37;;;;;;;42.30;22.73;;;7.40;99.90;;;7.37;68.60;94006.16;4977083;28;20942;-56
2023/01/10 07:21:05;;;;;;;49.63;25.07;;;7.40;99.90;;;7.36;68.64;94012.38;4975806;28;20459;-57
2023/01/10 07:23:32;;;;;;;47.30;24.70;;;7.40;99.90;;;7.32;68.27;94014.41;4975084;28;20482;-56
2023/01/10 07:26:02;;;;;;;39.03;22.20;;;7.40;99.90;;;7.31;69.35;94011.94;4974876;28;20825;-55
2023/01/10 07:28:30;;;;;;;43.50;22.80;;;7.30;99.90;;;7.36;70.77;94015.78;4976102;28;21010;-54
2023/01/10 07:30:59;;;;;;;36.03;23.10;;;7.40;99.90;;;7.45;71.42;94013.28;4978284;28;20456;-56
2023/01/10 07:33:26;;;;;;;42.23;23.23;;;7.50;99.90;;;7.54;71.20;94018.50;4973728;28;20558;-53
2023/01/10 07:35:55;;;;;;;39.20;22.37;;;7.60;99.90;;;7.62;70.69;94009.94;4973739;28;20463;-57
2023/01/10 07:38:22;;;;;;;43.20;23.70;;;7.60;99.90;;;7.70;69.58;94006.63;4975568;28;20479;-57
2023/01/10 07:40:50;;;;;;;39.63;24.60;;;7.70;99.90;;;7.73;68.91;94003.72;4974092;28;20530;-56
2023/01/10 07:43:17;;;;;;;43.07;23.93;;;7.70;99.90;;;7.71;68.75;93998.63;4976909;28;20489;-56
2023/01/10 07:45:44;;;;;;;38.30;22.27;;;7.70;99.90;;;7.69;68.78;94013.63;4975029;28;20455;-59
2023/01/10 07:48:12;;;;;;;40.67;24.47;;;7.70;99.90;;;7.65;69.00;94008.81;4980033;28;21031;-56
2023/01/10 07:50:39;;;;;;;45.57;22.97;;;7.70;99.90;;;7.63;68.57;94005.53;4976553;28;20456;-54
2023/01/10 07:53:08;;;;;;;38.10;25.03;;;7.70;99.90;;;7.59;68.69;94015.47;4977622;28;20475;-58
2023/01/10 07:55:38;;;;;;;35.47;22.10;;;7.70;99.90;;;7.56;69.06;94007.91;4975875;28;20622;-56
2023/01/10 07:58:07;;;;;;;35.43;21.00;;;7.60;99.90;;;7.53;68.53;94005.56;4977484;28;20485;-54
2023/01/10 08:00:35;;;;;;;41.53;21.40;;;7.60;99.90;;;7.50;68.92;94004.06;4976463;28;20451;-56
2023/01/10 08:03:02;;;;;;;45.53;19.77;;;7.60;99.90;;;7.49;68.48;94004.19;4977305;28;20474;-57
2023/01/10 08:05:29;;;;;;;43.70;19.87;;;7.60;99.90;;;7.45;69.01;94002.81;4976314;28;21030;-55
2023/01/10 08:07:59;;;;;;;38.73;18.77;;;7.50;99.90;;;7.41;68.80;94001.47;4977151;28;20481;-58
2023/01/10 08:10:28;;;;;;;32.10;17.47;;;7.50;99.90;;;7.37;69.21;93998.28;4978995;28;20453;-57
2023/01/10 08:12:55;;;;;;;39.73;19.40;;;7.40;99.90;;;7.36;69.74;93994.06;4977931;28;20482;-55
2023/01/10 08:15:22;;;;;;;31.27;18.80;;;7.40;99.90;;;7.36;69.50;93991.44;4977515;28;20494;-55
2023/01/10 08:17:49;;;;;;;34.83;20.13;;;7.40;99.90;;;7.34;69.67;93988.97;4976710;28;20486;-54
2023/01/10 08:20:17;;;;;;;34.40;17.93;;;7.40;99.90;;;7.34;69.38;93995.97;4976405;28;20520;-55
2023/01/10 08:22:44;;;;;;;29.97;17.63;;;7.40;99.90;;;7.34;69.40;93990.72;4980742;28;20478;-57
2023/01/10 08:25:12;;;;;;;32.67;17.53;;;7.40;99.90;;;7.34;69.37;93995.97;4980872;28;20513;-54
2023/01/10 08:27:40;;;;;;;37.43;16.33;;;7.40;99.90;;;7.33;69.70;93983.88;4980661;28;20478;-56
2023/01/10 08:30:10;;;;;;;34.73;20.37;;;7.40;99.90;;;7.31;69.94;93970.94;4980527;28;20458;-55
2023/01/10 08:32:38;;;;;;;30.10;17.37;;;7.40;99.90;;;7.32;69.46;93974.38;4979362;28;20529;-57
2023/01/10 08:35:07;;;;;;;36.07;21.33;;;7.40;99.90;;;7.32;69.24;93961.28;4979312;28;20599;-56
2023/01/10 08:37:34;;;;;;;31.90;21.13;;;7.40;99.90;;;7.31;69.48;93960.47;4980522;28;20990;-55
2023/01/10 08:40:02;;;;;;;41.07;21.37;;;7.30;99.90;;;7.31;70.24;93957.84;4978166;28;20494;-56
2023/01/10 08:42:29;;;;;;;37.00;20.03;;;7.30;99.90;;;7.33;70.10;93960.34;4979274;28;20859;-54
2023/01/10 08:44:59;;;;;;;33.73;18.17;;;7.40;99.90;;;7.33;69.79;93958.53;4977326;28;20463;-55
2023/01/10 08:47:26;;;;;;;30.20;18.13;;;7.40;99.90;;;7.36;69.59;93957.44;4984620;28;20961;-56
2023/01/10 08:49:53;;;;;;;33.20;20.30;;;7.40;99.90;;;7.38;70.09;93962.53;4980580;28;20469;-57
2023/01/10 08:52:21;;;;;;;32.90;18.50;;;7.40;99.90;;;7.39;69.92;93957.16;4985252;28;20536;-57
2023/01/10 08:54:49;;;;;;;29.40;18.77;;;7.50;99.90;;;7.41;69.94;93942.13;4980192;28;20499;-57
2023/01/10 08:57:16;;;;;;;31.20;17.40;;;7.50;99.90;;;7.43;70.02;93945.41;4978357;28;20509;-57
2023/01/10 08:59:43;;;;;;;33.57;18.67;;;7.50;99.90;;;7.41;69.92;93943.91;4979614;28;20876;-57
2023/01/10 09:02:13;;;;;;;35.03;19.20;;;7.50;99.90;;;7.42;70.08;93954.25;4981610;28;20462;-56
2023/01/10 09:04:40;;;;;;;40.10;20.33;;;7.50;99.90;;;7.46;69.75;93944.31;4979170;28;20537;-55
2023/01/10 09:07:07;;;;;;;40.00;21.73;;;7.50;99.90;;;7.46;70.00;93941.69;4980683;28;20827;-56
2023/01/10 09:09:36;;;;;;;37.20;21.43;;;7.50;99.90;;;7.46;69.96;93937.28;4980648;28;20454;-55
2023/01/10 09:12:53;;;;;;;39.90;21.03;;;7.50;99.90;;;7.46;69.75;93932.03;4980267;28;20970;-55
2023/01/10 09:14:51;;;;;;;38.30;22.20;;;7.50;99.90;;;7.47;70.16;93936.31;4979891;28;21871;-56
2023/01/10 09:17:20;;;;;;;35.20;21.47;;;7.50;99.90;;;7.48;69.93;93930.13;4978473;28;20478;-55
2023/01/10 09:19:47;;;;;;;41.43;24.07;;;7.50;99.90;;;7.50;70.72;93936.03;4981775;28;20926;-57
2023/01/10 09:22:15;;;;;;;52.87;23.57;;;7.50;99.90;;;7.53;69.99;93933.13;4977856;28;20452;-56
2023/01/10 09:24:43;;;;;;;45.27;24.67;;;7.60;99.90;;;7.57;70.74;93932.81;4981236;28;20895;-58
2023/01/10 09:27:10;;;;;;;46.03;22.73;;;7.60;99.90;;;7.59;70.91;93928.25;4977677;28;20456;-56
2023/01/10 09:29:38;;;;;;;46.53;23.80;;;7.60;99.90;;;7.62;70.02;93926.22;4980428;28;20478;-56
2023/01/10 09:32:06;;;;;;;42.13;24.40;;;7.60;99.90;;;7.64;70.35;93926.06;4976364;28;20477;-56
2023/01/10 09:34:35;;;;;;;45.57;25.43;;;7.60;99.90;;;7.65;70.35;93925.91;4979943;28;20998;-54
2023/01/10 09:37:02;;;;;;;41.30;23.67;;;7.70;99.90;;;7.68;69.99;93922.16;4976861;28;20487;-54
2023/01/10 09:39:31;;;;;;;46.73;26.87;;;7.70;99.90;;;7.70;70.44;93917.63;4979665;28;20450;-57
2023/01/10 09:42:14;;;;;;;58.80;25.70;;;7.70;99.90;;;7.72;70.50;93907.81;4980156;28;20456;-57
2023/01/10 09:44:48;;;;;;;42.90;25.10;;;7.80;99.90;;;7.75;70.15;93904.09;4974644;28;20497;-55
2023/01/10 09:47:19;;;;;;;48.77;25.63;;;7.80;99.90;;;7.77;69.99;93897.72;4983070;28;21945;-58
2023/01/10 09:49:52;;;;;;;46.90;25.50;;;7.80;99.90;;;7.78;70.52;93894.16;4976462;28;20451;-56
2023/01/10 09:52:22;;;;;;;48.20;24.60;;;7.80;99.90;;;7.81;70.25;93883.38;4981073;28;20475;-56
2023/01/10 09:54:50;;;;;;;43.30;25.10;;;7.80;99.90;;;7.83;70.57;93885.84;4977887;28;20841;-56
2023/01/10 09:57:20;;;;;;;45.20;25.13;;;7.90;99.90;;;7.84;70.21;93890.94;4978490;28;20480;-55
2023/01/10 09:59:49;;;;;;;40.23;22.60;;;7.90;99.90;;;7.86;70.11;93878.53;4977315;28;20493;-55
2023/01/10 10:02:24;;;;;;;40.63;23.90;;;7.90;99.90;;;7.89;70.60;93885.25;4980534;28;20470;-56
2023/01/10 10:05:07;;;;;;;38.57;23.27;;;7.90;99.90;;;7.90;70.15;93877.25;4978682;28;20530;-56
2023/01/10 10:07:35;;;;;;;42.70;24.50;;;7.90;99.90;;;7.90;70.27;93877.25;4980575;28;20567;-57
2023/01/10 10:10:02;;;;;;;78.17;42.73;;;7.90;99.90;;;7.91;70.55;93872.84;4980351;28;20563;-57
2023/01/10 10:12:33;;;;;;;72.00;41.63;;;7.90;99.90;;;7.92;70.25;93871.88;4978565;28;20476;-56
2023/01/10 10:15:09;;;;;;;70.90;37.30;;;7.90;99.90;;;7.94;70.52;93874.34;4979303;28;20505;-57
2023/01/10 10:17:43;;;;;;;57.83;33.67;;;7.90;99.90;;;7.94;69.76;93866.50;4975621;28;20663;-57
2023/01/10 10:20:29;;;;;;;50.73;28.03;;;7.90;99.90;;;7.94;70.30;93871.72;4977381;28;20517;-57
2023/01/10 10:23:08;;;;;;;47.53;24.80;;;7.90;99.90;;;7.94;69.67;93869.94;4980526;28;20552;-56
2023/01/10 10:25:58;;;;;;;47.97;24.67;;;7.90;99.90;;;7.94;70.66;93871.72;4971894;28;20526;-56
2023/01/10 10:29:01;;;;;;;46.00;25.70;;;8.00;99.90;;;7.94;70.17;93866.50;4975490;28;20487;-57
2023/01/10 10:31:45;;;;;;;40.73;23.20;;;8.00;99.90;;;7.94;70.57;93866.50;4978189;28;20497;-57
2023/01/10 10:34:16;;;;;;;46.47;23.33;;;7.90;99.90;;;7.95;70.36;93862.88;4978546;28;20494;-55
2023/01/10 10:36:48;;;;;;;38.97;20.90;;;8.00;99.90;;;7.95;70.07;93861.13;4979166;28;20483;-57
2023/01/10 10:39:18;;;;;;;35.00;20.67;;;8.00;99.90;;;7.93;70.00;93849.13;4976233;28;20460;-57
2023/01/10 10:41:48;;;;;;;37.90;21.17;;;8.00;99.90;;;7.93;70.25;93854.38;4976886;28;20466;-58